Midway, Utah
Current Conditions -  °F | °C
As of 6:55 PM on Monday 20 Oct 2014 (Local Time) from K36U Reporting Station
Scattered Clouds Scattered Clouds  
Wind Chill: 61°   Ceiling: Unl
Heat Index: 61°   Visibility: 10mi
Dew Point: 34°   Wind: 6mph
Humidity: 36%   Direction: 170°S
Pressure: 30.01"   Gusts: NA
Location:  40.51°N, 111.47°W
Report Text: K36U 210055Z AUTO 17005KT 10SM SCT095 16/01 A3001 RMK AO2
Loading
Personal Weather Stations






























Interactive Weather Map
Tropical Storm Tracking
New forecast layout! Learn more

10-Day Weather Forecast

Advertisements
Track Severe Weather on mobile